createdAt,value
2017-11-28T00:00:32.723Z,954.49
2017-11-28T00:02:26.089Z,954.46
2017-11-28T00:03:26.092Z,954.47
2017-11-28T00:05:19.495Z,954.46
2017-11-28T00:06:19.471Z,954.40
2017-11-28T00:08:12.851Z,954.39
2017-11-28T00:09:12.859Z,954.39
2017-11-28T00:11:06.267Z,954.24
2017-11-28T00:12:06.247Z,954.29
2017-11-28T00:13:59.635Z,954.21
2017-11-28T00:14:59.669Z,954.19
2017-11-28T00:16:53.048Z,954.17
2017-11-28T00:17:53.013Z,954.14
2017-11-28T00:19:46.391Z,954.14
2017-11-28T00:20:46.387Z,954.14
2017-11-28T00:22:39.797Z,954.09
2017-11-28T00:23:39.787Z,954.09
2017-11-28T00:25:33.155Z,954.06
2017-11-28T00:26:33.168Z,954.04
2017-11-28T00:28:26.575Z,954.05
2017-11-28T00:29:26.556Z,954.03
2017-11-28T00:31:19.922Z,954.09
2017-11-28T00:32:19.942Z,954.05
2017-11-28T00:34:13.332Z,954.00
2017-11-28T00:35:13.313Z,953.93
2017-11-28T00:37:06.708Z,953.95
2017-11-28T00:38:06.695Z,953.95
2017-11-28T00:40:00.071Z,953.80
2017-11-28T00:41:00.077Z,953.95
2017-11-28T00:42:53.478Z,953.88
2017-11-28T00:43:53.462Z,953.78
2017-11-28T00:45:46.826Z,953.82
2017-11-28T00:46:46.825Z,953.76
2017-11-28T00:48:40.277Z,953.78
2017-11-28T00:49:40.264Z,953.80
2017-11-28T00:51:33.628Z,953.77
2017-11-28T00:52:33.627Z,953.76
2017-11-28T00:54:27.037Z,953.58
2017-11-28T00:55:27.013Z,953.63
2017-11-28T00:57:20.397Z,953.62
2017-11-28T00:58:20.392Z,953.61
2017-11-28T01:00:13.788Z,953.58
2017-11-28T01:01:13.787Z,953.59
2017-11-28T01:03:07.158Z,953.51
2017-11-28T01:04:07.153Z,953.48
2017-11-28T01:06:00.552Z,953.45
2017-11-28T01:07:00.540Z,953.38
2017-11-28T01:08:53.909Z,953.30
2017-11-28T01:09:53.913Z,953.33
2017-11-28T01:11:47.314Z,953.34
2017-11-28T01:12:47.305Z,953.31
2017-11-28T01:14:40.673Z,953.29
2017-11-28T01:15:40.676Z,953.37
2017-11-28T01:17:34.077Z,953.43
2017-11-28T01:18:34.061Z,953.33
2017-11-28T01:20:27.442Z,953.27
2017-11-28T01:21:27.439Z,953.32
2017-11-28T01:23:20.833Z,953.30
2017-11-28T01:24:20.823Z,953.27
2017-11-28T01:26:14.207Z,953.27
2017-11-28T01:27:14.216Z,953.25
2017-11-28T01:29:07.612Z,953.27
2017-11-28T01:30:07.590Z,953.26
2017-11-28T01:32:01.996Z,953.32
2017-11-28T01:33:01.968Z,953.17
2017-11-28T01:34:55.349Z,953.27
2017-11-28T01:35:55.372Z,953.26
2017-11-28T01:37:48.747Z,953.22
2017-11-28T01:38:48.728Z,953.21
2017-11-28T01:40:42.115Z,953.20
2017-11-28T01:41:42.113Z,953.13
2017-11-28T01:43:35.526Z,953.18
2017-11-28T01:44:35.491Z,953.14
2017-11-28T01:46:28.878Z,953.09
2017-11-28T01:47:28.887Z,953.07
2017-11-28T01:49:22.281Z,953.02
2017-11-28T01:50:22.263Z,953.04
2017-11-28T01:52:15.649Z,953.01
2017-11-28T01:53:15.647Z,953.00
2017-11-28T01:55:09.045Z,952.89
2017-11-28T01:56:09.025Z,952.90
2017-11-28T01:58:02.407Z,952.82
2017-11-28T01:59:02.413Z,952.85
2017-11-28T02:00:55.807Z,952.80
2017-11-28T02:01:55.793Z,952.79
2017-11-28T02:03:49.185Z,952.74
2017-11-28T02:04:49.179Z,952.70
2017-11-28T02:06:42.548Z,952.64
2017-11-28T02:07:42.550Z,952.63
2017-11-28T02:09:35.956Z,952.58
2017-11-28T02:10:35.949Z,952.57
2017-11-28T02:12:29.312Z,952.60
2017-11-28T02:13:29.317Z,952.56
2017-11-28T02:15:22.720Z,952.53
2017-11-28T02:16:22.701Z,952.46
2017-11-28T02:18:16.080Z,952.43
2017-11-28T02:19:16.086Z,952.40
2017-11-28T02:21:09.471Z,952.38
2017-11-28T02:22:09.463Z,952.38
2017-11-28T02:24:02.869Z,952.36
2017-11-28T02:25:02.853Z,952.36
2017-11-28T02:26:56.215Z,952.32
2017-11-28T02:27:56.217Z,952.28
2017-11-28T02:29:49.634Z,952.24
2017-11-28T02:30:49.605Z,952.25
2017-11-28T02:32:42.978Z,952.16
2017-11-28T02:33:42.988Z,952.13
2017-11-28T02:35:36.384Z,952.09
2017-11-28T02:36:36.363Z,952.06
2017-11-28T02:38:29.752Z,952.08
2017-11-28T02:39:29.751Z,952.08
2017-11-28T02:41:23.161Z,952.04
2017-11-28T02:42:23.151Z,952.04
2017-11-28T02:44:16.510Z,952.02
2017-11-28T02:45:16.515Z,952.03
2017-11-28T02:47:09.910Z,952.00
2017-11-28T02:48:09.890Z,951.95
2017-11-28T02:50:03.274Z,952.00
2017-11-28T02:51:03.286Z,952.02
2017-11-28T02:52:56.676Z,951.91
2017-11-28T02:53:56.677Z,951.85
2017-11-28T02:55:50.033Z,951.84
2017-11-28T02:56:50.042Z,951.77
2017-11-28T02:58:43.439Z,951.78
2017-11-28T02:59:43.418Z,951.80
2017-11-28T03:01:36.805Z,951.72
2017-11-28T03:02:36.809Z,951.80
2017-11-28T03:04:30.209Z,951.67
2017-11-28T03:05:30.191Z,951.73
2017-11-28T03:07:23.573Z,951.69
2017-11-28T03:08:23.574Z,951.69
2017-11-28T03:10:16.972Z,951.64
2017-11-28T03:11:16.953Z,951.56
2017-11-28T03:13:10.359Z,951.60
2017-11-28T03:14:10.338Z,951.57
2017-11-28T03:16:03.742Z,951.50
2017-11-28T03:17:03.733Z,951.42
2017-11-28T03:18:57.094Z,951.39
2017-11-28T03:19:57.126Z,951.46
2017-11-28T03:21:50.501Z,951.42
2017-11-28T03:22:50.480Z,951.38
2017-11-28T03:24:43.868Z,951.33
2017-11-28T03:25:43.884Z,951.30
2017-11-28T03:27:37.265Z,951.28
2017-11-28T03:28:37.268Z,951.32
2017-11-28T03:30:30.665Z,951.29
2017-11-28T03:31:30.625Z,951.23
2017-11-28T03:33:24.005Z,951.28
2017-11-28T03:34:24.004Z,951.35
2017-11-28T03:36:17.411Z,951.21
2017-11-28T03:37:17.386Z,951.17
2017-11-28T03:39:10.770Z,951.19
2017-11-28T03:40:10.770Z,951.17
2017-11-28T03:42:04.167Z,951.15
2017-11-28T03:43:04.154Z,951.10
2017-11-28T03:44:57.533Z,951.05
2017-11-28T03:45:57.532Z,951.10
2017-11-28T03:47:50.925Z,951.07
2017-11-28T03:48:50.910Z,951.03
2017-11-28T03:50:44.293Z,951.01
2017-11-28T03:51:44.311Z,951.04
2017-11-28T03:53:37.698Z,950.98
2017-11-28T03:54:37.697Z,950.99
2017-11-28T03:56:31.073Z,950.97
2017-11-28T03:57:31.060Z,950.98
2017-11-28T03:59:24.443Z,950.98
2017-11-28T04:00:24.442Z,951.03
2017-11-28T04:02:17.859Z,950.96
2017-11-28T04:03:17.816Z,950.93
2017-11-28T04:05:11.196Z,950.92
2017-11-28T04:06:11.195Z,950.88
2017-11-28T04:08:04.595Z,950.96
2017-11-28T04:09:04.579Z,950.96
2017-11-28T04:10:57.964Z,950.86
2017-11-28T04:11:57.957Z,950.79
2017-11-28T04:13:51.361Z,950.86
2017-11-28T04:14:51.352Z,950.82
2017-11-28T04:16:44.739Z,950.79
2017-11-28T04:17:44.725Z,950.82
2017-11-28T04:19:38.107Z,950.78
2017-11-28T04:20:38.122Z,950.76
2017-11-28T04:22:31.516Z,950.78
2017-11-28T04:23:31.493Z,950.77
2017-11-28T04:25:24.874Z,950.78
2017-11-28T04:26:24.885Z,950.77
2017-11-28T04:28:18.283Z,950.87
2017-11-28T04:29:18.263Z,950.84
2017-11-28T04:31:11.640Z,950.82
2017-11-28T04:32:11.656Z,950.87
2017-11-28T04:34:05.051Z,950.88
2017-11-28T04:35:05.037Z,950.83
2017-11-28T04:36:58.465Z,950.89
2017-11-28T04:37:58.439Z,950.82
2017-11-28T04:39:51.802Z,950.80
2017-11-28T04:40:51.792Z,950.81
2017-11-28T04:42:45.194Z,950.84
2017-11-28T04:43:45.185Z,950.77
2017-11-28T04:45:38.573Z,950.85
2017-11-28T04:46:38.589Z,950.76
2017-11-28T04:48:31.960Z,950.78
2017-11-28T04:49:31.948Z,950.78
2017-11-28T04:51:25.327Z,950.82
2017-11-28T04:52:25.323Z,950.78
2017-11-28T04:54:18.729Z,950.78
2017-11-28T04:55:18.721Z,950.81
2017-11-28T04:57:12.084Z,950.79
2017-11-28T04:58:12.085Z,950.76
2017-11-28T05:00:05.514Z,950.79
2017-11-28T05:01:05.465Z,950.78
2017-11-28T05:02:58.845Z,950.80
2017-11-28T05:03:58.847Z,950.80
2017-11-28T05:05:52.276Z,950.80
2017-11-28T05:06:52.306Z,950.88
2017-11-28T05:08:45.717Z,950.84
2017-11-28T05:09:45.644Z,950.79
2017-11-28T05:11:39.047Z,950.75
2017-11-28T05:12:39.025Z,950.78
2017-11-28T05:14:32.464Z,950.71
2017-11-28T05:15:32.438Z,950.72
2017-11-28T05:17:25.810Z,950.76
2017-11-28T05:18:25.834Z,950.74
2017-11-28T05:20:19.201Z,950.76
2017-11-28T05:21:19.323Z,950.74
2017-11-28T05:23:12.562Z,950.70
2017-11-28T05:24:12.563Z,950.68
2017-11-28T05:26:06.057Z,950.69
2017-11-28T05:27:06.005Z,950.59
2017-11-28T05:28:59.504Z,950.64
2017-11-28T05:29:59.525Z,950.62
2017-11-28T05:31:52.913Z,950.61
2017-11-28T05:32:52.853Z,950.65
2017-11-28T05:34:46.302Z,950.65
2017-11-28T05:35:46.322Z,950.67
2017-11-28T05:37:39.713Z,950.62
2017-11-28T05:38:39.640Z,950.54
2017-11-28T05:40:33.003Z,950.60
2017-11-28T05:41:33.040Z,950.59
2017-11-28T05:43:26.416Z,950.47
2017-11-28T05:44:26.395Z,950.41
2017-11-28T05:46:19.752Z,950.38
2017-11-28T05:47:19.806Z,950.41
2017-11-28T05:49:13.145Z,950.32
2017-11-28T05:50:13.128Z,950.27
2017-11-28T05:52:06.552Z,950.29
2017-11-28T05:53:06.569Z,950.25
2017-11-28T05:54:59.943Z,950.25
2017-11-28T05:55:59.921Z,950.25
2017-11-28T05:57:53.281Z,950.20
2017-11-28T05:58:53.311Z,950.30
2017-11-28T06:00:46.676Z,950.25
2017-11-28T06:01:46.666Z,950.26
2017-11-28T06:03:40.105Z,950.32
2017-11-28T06:04:40.141Z,950.34
2017-11-28T06:06:33.428Z,950.32
2017-11-28T06:07:33.425Z,950.29
2017-11-28T06:09:26.825Z,950.25
2017-11-28T06:10:26.838Z,950.28
2017-11-28T06:12:20.306Z,950.29
2017-11-28T06:13:20.250Z,950.31
2017-11-28T06:15:13.598Z,950.25
2017-11-28T06:16:13.625Z,950.24
2017-11-28T06:18:06.992Z,950.19
2017-11-28T06:19:06.983Z,950.20
2017-11-28T06:21:00.409Z,950.18
2017-11-28T06:22:00.398Z,950.23
2017-11-28T06:23:53.781Z,950.23
2017-11-28T06:24:53.786Z,950.26
2017-11-28T06:26:47.152Z,950.28
2017-11-28T06:27:47.610Z,950.23
2017-11-28T06:29:40.783Z,950.26
2017-11-28T06:30:40.611Z,950.24
2017-11-28T06:32:34.102Z,950.23
2017-11-28T06:33:34.145Z,950.23
2017-11-28T06:35:27.596Z,950.36
2017-11-28T06:36:27.651Z,950.23
2017-11-28T06:38:20.989Z,950.21
2017-11-28T06:39:20.726Z,950.22
2017-11-28T06:41:14.250Z,950.22
2017-11-28T06:42:14.394Z,950.19
2017-11-28T06:44:07.687Z,950.20
2017-11-28T06:45:07.633Z,950.26
2017-11-28T06:47:01.046Z,950.23
2017-11-28T06:48:00.962Z,950.20
2017-11-28T06:49:54.615Z,950.18
2017-11-28T06:50:54.321Z,950.20
2017-11-28T06:52:48.899Z,950.20
2017-11-28T06:53:48.759Z,950.20
2017-11-28T06:55:42.235Z,950.23
2017-11-28T06:56:42.161Z,950.19
2017-11-28T06:58:35.562Z,950.22
2017-11-28T06:59:35.542Z,950.22
2017-11-28T07:01:28.983Z,950.26
2017-11-28T07:02:28.946Z,950.27
2017-11-28T07:04:23.362Z,950.20
2017-11-28T07:05:23.406Z,950.22
2017-11-28T07:07:17.829Z,950.23
2017-11-28T07:08:17.760Z,950.23
2017-11-28T07:10:12.306Z,950.22
2017-11-28T07:11:12.169Z,950.30
2017-11-28T07:13:05.703Z,950.23
2017-11-28T07:14:05.848Z,950.26
2017-11-28T07:16:00.067Z,950.23
2017-11-28T07:17:00.082Z,950.23
2017-11-28T07:18:53.354Z,950.18
2017-11-28T07:19:53.359Z,950.13
2017-11-28T07:21:47.801Z,950.14
2017-11-28T07:22:47.872Z,950.16
2017-11-28T07:24:42.178Z,950.18
2017-11-28T07:25:42.054Z,950.20
2017-11-28T07:27:36.675Z,950.17
2017-11-28T07:28:36.670Z,950.15
2017-11-28T07:30:29.991Z,950.21
2017-11-28T07:31:30.196Z,950.20
2017-11-28T07:33:23.248Z,950.19
2017-11-28T07:34:23.654Z,950.26
2017-11-28T07:36:16.805Z,950.19
2017-11-28T07:37:17.025Z,950.21
2017-11-28T07:39:10.389Z,950.21
2017-11-28T07:40:10.129Z,950.16
2017-11-28T07:42:04.629Z,950.18
2017-11-28T07:43:04.603Z,950.15
2017-11-28T07:44:58.132Z,950.27
2017-11-28T07:45:57.860Z,950.19
2017-11-28T07:47:52.186Z,950.18
2017-11-28T07:48:52.435Z,950.17
2017-11-28T07:50:53.871Z,950.26
2017-11-28T07:51:45.560Z,950.22
2017-11-28T07:53:40.047Z,950.26
2017-11-28T07:54:40.129Z,950.30
2017-11-28T07:56:33.741Z,950.25
2017-11-28T07:57:34.290Z,950.25
2017-11-28T07:59:27.177Z,950.26
2017-11-28T08:00:26.921Z,950.23
2017-11-28T08:02:21.290Z,950.21
2017-11-28T08:03:21.290Z,950.24
2017-11-28T08:05:15.790Z,950.24
2017-11-28T08:06:15.750Z,950.21
2017-11-28T08:08:09.085Z,950.21
2017-11-28T08:09:09.383Z,950.20
2017-11-28T08:11:03.456Z,950.14
2017-11-28T08:12:03.417Z,950.17
2017-11-28T08:13:57.887Z,950.21
2017-11-28T08:14:57.850Z,950.10
2017-11-28T08:16:52.354Z,950.23
2017-11-28T08:17:52.280Z,950.22
2017-11-28T08:19:45.702Z,950.15
2017-11-28T08:20:45.497Z,950.18
2017-11-28T08:22:40.043Z,950.17
2017-11-28T08:23:40.186Z,950.13
2017-11-28T08:25:34.561Z,950.08
2017-11-28T08:26:34.453Z,950.15
2017-11-28T08:28:29.305Z,950.22
2017-11-28T08:29:28.695Z,950.15
2017-11-28T08:31:22.135Z,950.15
2017-11-28T08:32:22.144Z,950.08
2017-11-28T08:34:16.571Z,950.15
2017-11-28T08:35:16.510Z,950.12
2017-11-28T08:37:09.918Z,950.18
2017-11-28T08:38:09.982Z,950.15
2017-11-28T08:40:03.382Z,950.14
2017-11-28T08:41:03.359Z,950.12
2017-11-28T08:42:57.787Z,950.11
2017-11-28T08:43:57.766Z,950.12
2017-11-28T08:45:51.069Z,950.18
2017-11-28T08:46:51.072Z,950.21
2017-11-28T08:48:44.474Z,950.26
2017-11-28T08:49:44.553Z,950.28
2017-11-28T08:51:37.932Z,950.25
2017-11-28T08:52:37.870Z,950.25
2017-11-28T08:54:31.255Z,950.25
2017-11-28T08:55:31.293Z,950.19
2017-11-28T08:57:25.657Z,950.20
2017-11-28T08:58:25.664Z,950.26
2017-11-28T09:00:19.049Z,950.30
2017-11-28T09:01:19.025Z,950.38
2017-11-28T09:03:12.422Z,950.28
2017-11-28T09:04:12.428Z,950.27
2017-11-28T09:06:05.810Z,950.29
2017-11-28T09:07:05.795Z,950.28
2017-11-28T09:08:59.181Z,950.35
2017-11-28T09:09:59.181Z,950.32
2017-11-28T09:11:52.585Z,950.30
2017-11-28T09:12:52.567Z,950.31
2017-11-28T09:14:45.956Z,950.36
2017-11-28T09:15:45.961Z,950.35
2017-11-28T09:17:39.363Z,950.36
2017-11-28T09:18:39.346Z,950.38
2017-11-28T09:20:32.736Z,950.35
2017-11-28T09:21:32.739Z,950.34
2017-11-28T09:23:26.104Z,950.31
2017-11-28T09:24:26.108Z,950.34
2017-11-28T09:26:19.502Z,950.35
2017-11-28T09:27:19.483Z,950.32
2017-11-28T09:29:12.868Z,950.31
2017-11-28T09:30:12.878Z,950.39
2017-11-28T09:32:06.285Z,950.31
2017-11-28T09:33:06.253Z,950.26
2017-11-28T09:34:59.635Z,950.28
2017-11-28T09:35:59.634Z,950.34
2017-11-28T09:37:53.061Z,950.26
2017-11-28T09:38:53.067Z,950.29
2017-11-28T09:40:46.418Z,950.23
2017-11-28T09:41:46.405Z,950.27
2017-11-28T09:43:39.812Z,950.20
2017-11-28T09:44:39.797Z,950.25
2017-11-28T09:46:33.165Z,950.19
2017-11-28T09:47:33.177Z,950.19
2017-11-28T09:49:26.567Z,950.18
2017-11-28T09:50:26.594Z,950.16
2017-11-28T09:52:19.936Z,950.17
2017-11-28T09:53:19.952Z,950.14
2017-11-28T09:55:13.333Z,950.11
2017-11-28T09:56:13.315Z,950.11
2017-11-28T09:58:06.731Z,950.07
2017-11-28T09:59:06.699Z,950.18
2017-11-28T10:01:00.098Z,950.05
2017-11-28T10:02:00.100Z,950.10
2017-11-28T10:03:53.485Z,950.06
2017-11-28T10:04:53.482Z,950.06
2017-11-28T10:06:46.852Z,950.04
2017-11-28T10:07:46.865Z,950.02
2017-11-28T10:09:41.253Z,949.96
2017-11-28T10:10:41.228Z,950.03
2017-11-28T10:12:34.613Z,949.99
2017-11-28T10:13:34.620Z,950.02
2017-11-28T10:15:28.023Z,949.99
2017-11-28T10:16:27.995Z,949.94
2017-11-28T10:18:21.385Z,949.99
2017-11-28T10:19:21.392Z,949.94
2017-11-28T10:21:14.803Z,949.90
2017-11-28T10:22:14.779Z,949.99
2017-11-28T10:24:08.155Z,949.86
2017-11-28T10:25:08.170Z,949.92
2017-11-28T10:27:01.557Z,949.81
2017-11-28T10:28:01.536Z,949.84
2017-11-28T10:29:54.923Z,949.81
2017-11-28T10:30:54.940Z,949.77
2017-11-28T10:32:48.334Z,949.74
2017-11-28T10:33:48.313Z,949.81
2017-11-28T10:35:41.690Z,949.79
2017-11-28T10:36:41.708Z,949.76
2017-11-28T10:38:35.101Z,949.76
2017-11-28T10:39:35.105Z,949.69
2017-11-28T10:41:28.480Z,949.67
2017-11-28T10:42:28.457Z,949.72
2017-11-28T10:44:21.878Z,949.69
2017-11-28T10:45:21.858Z,949.83
2017-11-28T10:47:15.286Z,949.71
2017-11-28T10:48:15.285Z,949.71
2017-11-28T10:50:08.719Z,949.69
2017-11-28T10:51:08.683Z,949.66
2017-11-28T10:53:02.077Z,949.73
2017-11-28T10:54:02.064Z,949.73
2017-11-28T10:55:55.457Z,949.69
2017-11-28T10:56:55.441Z,949.63
2017-11-28T10:58:48.844Z,949.68
2017-11-28T10:59:48.867Z,949.70
2017-11-28T11:01:42.251Z,949.70
2017-11-28T11:02:42.247Z,949.64
2017-11-28T11:04:35.604Z,949.64
2017-11-28T11:05:35.593Z,949.63
2017-11-28T11:07:28.992Z,949.62
2017-11-28T11:08:29.029Z,949.58
2017-11-28T11:10:22.387Z,949.56
2017-11-28T11:11:22.426Z,949.58
2017-11-28T11:13:15.805Z,949.54
2017-11-28T11:14:15.792Z,949.52
2017-11-28T11:16:09.161Z,949.50
2017-11-28T11:17:09.172Z,949.47
2017-11-28T11:19:02.567Z,949.44
2017-11-28T11:20:02.587Z,949.41
2017-11-28T11:21:55.945Z,949.47
2017-11-28T11:22:55.945Z,949.43
2017-11-28T11:24:50.330Z,949.44
2017-11-28T11:25:50.369Z,949.45
2017-11-28T11:27:43.729Z,949.44
2017-11-28T11:28:43.717Z,949.44
2017-11-28T11:30:37.109Z,949.43
2017-11-28T11:31:37.132Z,949.34
2017-11-28T11:33:30.499Z,949.36
2017-11-28T11:34:30.525Z,949.38
2017-11-28T11:36:23.911Z,949.30
2017-11-28T11:37:23.896Z,949.34
2017-11-28T11:39:17.348Z,949.23
2017-11-28T11:40:17.333Z,949.26
2017-11-28T11:42:10.688Z,949.28
2017-11-28T11:43:10.737Z,949.22
2017-11-28T11:45:04.099Z,949.16
2017-11-28T11:46:04.092Z,949.22
2017-11-28T11:47:57.528Z,949.18
2017-11-28T11:48:57.450Z,949.17
2017-11-28T11:50:50.846Z,949.16
2017-11-28T11:51:50.908Z,949.18
2017-11-28T11:53:44.236Z,949.18
2017-11-28T11:54:44.244Z,949.14
2017-11-28T11:56:37.660Z,949.13
2017-11-28T11:57:37.633Z,949.17
2017-11-28T11:59:31.051Z,949.11
2017-11-28T12:00:31.045Z,949.19
2017-11-28T12:02:24.362Z,949.11
2017-11-28T12:03:24.380Z,949.09
2017-11-28T12:05:17.796Z,949.11
2017-11-28T12:06:17.768Z,949.03
2017-11-28T12:08:11.240Z,949.10
2017-11-28T12:09:11.238Z,949.08
2017-11-28T12:11:04.561Z,949.05
2017-11-28T12:12:04.650Z,948.99
2017-11-28T12:13:57.937Z,949.01
2017-11-28T12:14:57.995Z,948.97
2017-11-28T12:16:51.348Z,949.01
2017-11-28T12:17:51.409Z,948.99
2017-11-28T12:19:44.712Z,948.97
2017-11-28T12:20:44.716Z,948.92
2017-11-28T12:22:38.074Z,948.95
2017-11-28T12:23:38.178Z,948.92
2017-11-28T12:25:31.502Z,948.91
2017-11-28T12:26:31.511Z,948.83
2017-11-28T12:28:24.864Z,948.90
2017-11-28T12:29:24.886Z,948.86
2017-11-28T12:31:18.310Z,948.87
2017-11-28T12:32:18.303Z,948.86
2017-11-28T12:34:11.716Z,948.86
2017-11-28T12:35:11.673Z,948.82
2017-11-28T12:37:05.065Z,948.80
2017-11-28T12:38:05.094Z,948.82
2017-11-28T12:39:58.453Z,948.82
2017-11-28T12:40:58.462Z,948.77
2017-11-28T12:42:51.849Z,948.76
2017-11-28T12:43:51.881Z,948.76
2017-11-28T12:45:45.254Z,948.86
2017-11-28T12:46:45.274Z,948.76
2017-11-28T12:48:38.585Z,948.78
2017-11-28T12:49:38.608Z,948.64
2017-11-28T12:51:32.016Z,948.65
2017-11-28T12:52:32.030Z,948.62
2017-11-28T12:54:25.393Z,948.63
2017-11-28T12:55:25.401Z,948.58
2017-11-28T12:57:18.817Z,948.60
2017-11-28T12:58:18.846Z,948.60
2017-11-28T13:00:12.191Z,948.55
2017-11-28T13:01:12.184Z,948.51
2017-11-28T13:03:05.556Z,948.53
2017-11-28T13:04:05.593Z,948.47
2017-11-28T13:05:58.916Z,948.48
2017-11-28T13:06:58.936Z,948.47
2017-11-28T13:08:52.367Z,948.45
2017-11-28T13:09:52.344Z,948.46
2017-11-28T13:11:45.744Z,948.43
2017-11-28T13:12:45.722Z,948.41
2017-11-28T13:14:39.292Z,948.36
2017-11-28T13:15:39.146Z,948.42
2017-11-28T13:17:32.489Z,948.34
2017-11-28T13:18:32.509Z,948.35
2017-11-28T13:20:25.895Z,948.35
2017-11-28T13:21:25.893Z,948.34
2017-11-28T13:23:19.285Z,948.32
2017-11-28T13:24:19.278Z,948.30
2017-11-28T13:26:12.719Z,948.24
2017-11-28T13:27:12.672Z,948.28
2017-11-28T13:29:06.042Z,948.25
2017-11-28T13:30:06.059Z,948.23
2017-11-28T13:31:59.455Z,948.24
2017-11-28T13:32:59.474Z,948.25
2017-11-28T13:34:52.873Z,948.26
2017-11-28T13:35:52.842Z,948.22
2017-11-28T13:37:46.312Z,948.20
2017-11-28T13:38:46.320Z,948.20
2017-11-28T13:40:39.745Z,948.16
2017-11-28T13:41:39.660Z,948.19
2017-11-28T13:43:33.077Z,948.15
2017-11-28T13:44:33.101Z,948.14
2017-11-28T13:46:26.459Z,948.16
2017-11-28T13:47:26.450Z,948.13
2017-11-28T13:49:19.816Z,948.12
2017-11-28T13:50:19.832Z,948.12
2017-11-28T13:52:13.263Z,948.15
2017-11-28T13:53:13.224Z,948.11
2017-11-28T13:55:06.593Z,948.12
2017-11-28T13:56:06.582Z,948.07
2017-11-28T13:57:59.983Z,948.10
2017-11-28T13:58:59.979Z,948.09
2017-11-28T14:00:53.342Z,948.09
2017-11-28T14:01:53.402Z,948.08
2017-11-28T14:03:46.779Z,948.11
2017-11-28T14:04:46.749Z,948.08
2017-11-28T14:06:40.162Z,948.10
2017-11-28T14:07:40.158Z,948.08
2017-11-28T14:09:33.539Z,948.06
2017-11-28T14:10:33.545Z,948.11
2017-11-28T14:12:26.891Z,948.09
2017-11-28T14:13:26.929Z,948.10
2017-11-28T14:15:20.277Z,948.11
2017-11-28T14:16:20.412Z,948.12
2017-11-28T14:18:13.698Z,948.10
2017-11-28T14:19:13.685Z,948.12
2017-11-28T14:21:07.052Z,948.15
2017-11-28T14:22:07.062Z,948.15
2017-11-28T14:24:00.440Z,948.11
2017-11-28T14:25:00.451Z,948.15
2017-11-28T14:26:54.022Z,948.10
2017-11-28T14:27:53.964Z,948.11
2017-11-28T14:29:47.442Z,948.11
2017-11-28T14:30:47.416Z,948.11
2017-11-28T14:32:41.830Z,948.14
2017-11-28T14:33:41.689Z,948.14
2017-11-28T14:35:35.064Z,948.12
2017-11-28T14:36:35.066Z,948.11
2017-11-28T14:38:28.455Z,948.06
2017-11-28T14:39:28.450Z,948.07
2017-11-28T14:41:21.889Z,948.10
2017-11-28T14:42:21.856Z,948.08
2017-11-28T14:44:16.257Z,948.09
2017-11-28T14:45:16.275Z,948.08
2017-11-28T14:47:10.677Z,948.07
2017-11-28T14:48:10.719Z,948.05
2017-11-28T14:50:03.996Z,948.03
2017-11-28T14:51:04.002Z,948.05
2017-11-28T14:52:57.387Z,948.06
2017-11-28T14:53:57.415Z,948.05
2017-11-28T14:55:51.832Z,948.01
2017-11-28T14:56:51.774Z,948.02
2017-11-28T14:58:45.319Z,947.98
2017-11-28T14:59:45.528Z,948.00
2017-11-28T15:01:38.583Z,947.98
2017-11-28T15:02:38.550Z,947.98
2017-11-28T15:04:31.917Z,947.94
2017-11-28T15:05:31.991Z,947.94
2017-11-28T15:07:25.385Z,947.88
2017-11-28T15:08:25.423Z,947.87
2017-11-28T15:10:18.754Z,947.83
2017-11-28T15:11:18.717Z,947.84
2017-11-28T15:13:12.230Z,947.81
2017-11-28T15:14:12.120Z,947.81
2017-11-28T15:16:05.510Z,947.78
2017-11-28T15:17:05.518Z,947.80
2017-11-28T15:18:59.010Z,947.73
2017-11-28T15:19:58.944Z,947.71
2017-11-28T15:21:53.344Z,947.74
2017-11-28T15:22:53.325Z,947.70
2017-11-28T15:24:47.123Z,947.71
2017-11-28T15:25:46.706Z,947.67
2017-11-28T15:27:40.124Z,947.68
2017-11-28T15:28:40.074Z,947.61
2017-11-28T15:30:33.542Z,947.59
2017-11-28T15:31:33.444Z,947.62
2017-11-28T15:33:27.863Z,947.56
2017-11-28T15:34:27.865Z,947.55
2017-11-28T15:36:21.328Z,947.54
2017-11-28T15:37:21.273Z,947.55
2017-11-28T15:39:15.697Z,947.51
2017-11-28T15:40:15.659Z,947.53
2017-11-28T15:42:10.093Z,947.58
2017-11-28T15:43:10.098Z,947.61
2017-11-28T15:45:03.511Z,947.59
2017-11-28T15:46:03.542Z,947.57
2017-11-28T15:47:56.890Z,947.58
2017-11-28T15:48:56.879Z,947.58
2017-11-28T15:50:50.281Z,947.66
2017-11-28T15:51:50.276Z,947.60
2017-11-28T15:53:43.641Z,947.58
2017-11-28T15:54:43.649Z,947.57
2017-11-28T15:56:37.118Z,947.56
2017-11-28T15:57:37.021Z,947.53
2017-11-28T15:59:30.425Z,947.54
2017-11-28T16:00:30.382Z,947.60
2017-11-28T16:02:23.766Z,947.57
2017-11-28T16:03:23.738Z,947.55
2017-11-28T16:05:18.246Z,947.56
2017-11-28T16:06:18.167Z,947.56
2017-11-28T16:08:11.584Z,947.50
2017-11-28T16:09:11.561Z,947.49
2017-11-28T16:11:04.984Z,947.49
2017-11-28T16:12:05.030Z,947.55
2017-11-28T16:13:58.388Z,947.50
2017-11-28T16:14:58.452Z,947.53
2017-11-28T16:16:52.774Z,947.52
2017-11-28T16:17:52.753Z,947.54
2017-11-28T16:19:47.173Z,947.51
2017-11-28T16:20:47.137Z,947.52
2017-11-28T16:22:40.604Z,947.53
2017-11-28T16:23:40.499Z,947.53
2017-11-28T16:25:33.971Z,947.51
2017-11-28T16:26:33.882Z,947.49
2017-11-28T16:28:27.410Z,947.45
2017-11-28T16:29:27.314Z,947.40
2017-11-28T16:31:20.685Z,947.40
2017-11-28T16:32:20.741Z,947.37
2017-11-28T16:34:14.101Z,947.37
2017-11-28T16:35:14.084Z,947.30
2017-11-28T16:37:08.494Z,947.31
2017-11-28T16:38:08.489Z,947.33
2017-11-28T16:40:01.885Z,947.34
2017-11-28T16:41:01.878Z,947.32
2017-11-28T16:42:55.258Z,947.22
2017-11-28T16:43:55.266Z,947.23
2017-11-28T16:45:48.626Z,947.19
2017-11-28T16:46:48.657Z,947.21
2017-11-28T16:48:42.009Z,947.19
2017-11-28T16:49:42.008Z,947.20
2017-11-28T16:51:35.410Z,947.14
2017-11-28T16:52:35.365Z,947.14
2017-11-28T16:54:28.753Z,947.12
2017-11-28T16:55:28.798Z,947.12
2017-11-28T16:57:22.141Z,947.10
2017-11-28T16:58:22.198Z,947.09
2017-11-28T17:00:16.593Z,947.08
2017-11-28T17:01:16.526Z,947.06
2017-11-28T17:03:09.930Z,947.03
2017-11-28T17:04:10.024Z,947.03
2017-11-28T17:06:03.350Z,947.02
2017-11-28T17:07:03.310Z,946.97
2017-11-28T17:08:56.790Z,946.91
2017-11-28T17:09:56.689Z,946.88
2017-11-28T17:11:51.085Z,946.83
2017-11-28T17:12:51.118Z,946.80
2017-11-28T17:14:44.568Z,946.85
2017-11-28T17:15:44.495Z,946.86
2017-11-28T17:17:38.834Z,946.88
2017-11-28T17:18:38.862Z,946.91
2017-11-28T17:20:32.215Z,946.93
2017-11-28T17:21:32.270Z,946.91
2017-11-28T17:23:25.649Z,946.88
2017-11-28T17:24:25.632Z,946.88
2017-11-28T17:26:19.276Z,946.70
2017-11-28T17:27:19.026Z,946.72
2017-11-28T17:29:12.397Z,946.74
2017-11-28T17:30:12.359Z,946.76
2017-11-28T17:32:05.856Z,946.78
2017-11-28T17:33:05.763Z,946.81
2017-11-28T17:34:59.261Z,946.81
2017-11-28T17:35:59.248Z,946.83
2017-11-28T17:37:52.587Z,946.84
2017-11-28T17:38:52.637Z,946.89
2017-11-28T17:40:45.947Z,946.84
2017-11-28T17:41:45.955Z,946.85
2017-11-28T17:43:39.347Z,946.86
2017-11-28T17:44:39.342Z,946.82
2017-11-28T17:46:32.722Z,946.83
2017-11-28T17:47:32.745Z,946.86
2017-11-28T17:49:27.252Z,946.82
2017-11-28T17:50:27.121Z,946.85
2017-11-28T17:52:20.464Z,946.85
2017-11-28T17:53:20.461Z,946.85
2017-11-28T17:55:13.873Z,946.86
2017-11-28T17:56:13.853Z,946.87
2017-11-28T17:58:07.255Z,946.81
2017-11-28T17:59:07.309Z,946.83
2017-11-28T18:01:00.644Z,946.77
2017-11-28T18:02:00.637Z,946.78